Terminal Aerodrome Forecast
Issued by NWS Corpus Christi, TX

Home | Current Version | Previous Version | Text Only | Print | Product List | Glossary On
Versions: 1 2 3 4 5 6 7 8 9 10 11 12 13 14
000
FTUS44 KCRP 301725
TAFVCT
TAF
KVCT 301725Z 3018/3118 VRB04KT P6SM FEW020
     FM302000 15008KT P6SM VCSH FEW035
     FM302300 15012KT P6SM SCT040 BKN100
     FM310400 18004KT P6SM SCT025 BKN060
     FM311500 12010KT P6SM VCSH FEW035 BKN060=

USA.gov is the U.S. government's official web portal to all federal, state and local government web resources and services.